sensor_id;sensor_type;location;lat;lon;timestamp;temperature;humidity
12568;DHT22;6349;50.904;6.136;2023-02-24T00:01:16;7.70;99.90
12568;DHT22;6349;50.904;6.136;2023-02-24T00:03:38;7.60;99.90
12568;DHT22;6349;50.904;6.136;2023-02-24T00:05:40;7.50;99.90
12568;DHT22;6349;50.904;6.136;2023-02-24T00:07:42;7.40;99.90
12568;DHT22;6349;50.904;6.136;2023-02-24T00:09:43;7.40;99.90
12568;DHT22;6349;50.904;6.136;2023-02-24T00:11:54;7.30;99.90
12568;DHT22;6349;50.904;6.136;2023-02-24T00:13:55;7.40;99.90
12568;DHT22;6349;50.904;6.136;2023-02-24T00:15:59;7.40;99.90
12568;DHT22;6349;50.904;6.136;2023-02-24T00:18:01;7.50;99.90
12568;DHT22;6349;50.904;6.136;2023-02-24T00:20:06;7.50;99.90
12568;DHT22;6349;50.904;6.136;2023-02-24T00:22:11;7.50;99.90
12568;DHT22;6349;50.904;6.136;2023-02-24T00:24:12;7.50;99.90
12568;DHT22;6349;50.904;6.136;2023-02-24T00:26:15;7.40;99.90
12568;DHT22;6349;50.904;6.136;2023-02-24T00:28:17;7.40;99.90
12568;DHT22;6349;50.904;6.136;2023-02-24T00:30:18;7.50;99.90
12568;DHT22;6349;50.904;6.136;2023-02-24T00:32:21;7.40;99.90
12568;DHT22;6349;50.904;6.136;2023-02-24T00:34:26;7.40;99.90
12568;DHT22;6349;50.904;6.136;2023-02-24T00:36:29;7.40;99.90
12568;DHT22;6349;50.904;6.136;2023-02-24T00:38:58;7.40;99.90
12568;DHT22;6349;50.904;6.136;2023-02-24T00:40:59;7.40;99.90
12568;DHT22;6349;50.904;6.136;2023-02-24T00:43:02;7.30;99.90
12568;DHT22;6349;50.904;6.136;2023-02-24T00:45:03;7.30;99.90
12568;DHT22;6349;50.904;6.136;2023-02-24T00:47:09;7.30;99.90
12568;DHT22;6349;50.904;6.136;2023-02-24T00:49:14;7.20;99.90
12568;DHT22;6349;50.904;6.136;2023-02-24T00:51:18;7.20;99.90
12568;DHT22;6349;50.904;6.136;2023-02-24T00:53:24;7.20;99.90
12568;DHT22;6349;50.904;6.136;2023-02-24T00:55:24;7.10;99.90
12568;DHT22;6349;50.904;6.136;2023-02-24T00:57:29;7.10;99.90
12568;DHT22;6349;50.904;6.136;2023-02-24T00:59:31;7.10;99.90
12568;DHT22;6349;50.904;6.136;2023-02-24T01:01:32;7.10;99.90
12568;DHT22;6349;50.904;6.136;2023-02-24T01:03:35;7.00;99.90
12568;DHT22;6349;50.904;6.136;2023-02-24T01:05:37;7.00;99.90
12568;DHT22;6349;50.904;6.136;2023-02-24T01:07:37;7.00;99.90
12568;DHT22;6349;50.904;6.136;2023-02-24T01:09:40;7.00;99.90
12568;DHT22;6349;50.904;6.136;2023-02-24T01:11:44;7.00;99.90
12568;DHT22;6349;50.904;6.136;2023-02-24T01:14:16;7.00;99.90
12568;DHT22;6349;50.904;6.136;2023-02-24T01:16:18;7.00;99.90
12568;DHT22;6349;50.904;6.136;2023-02-24T01:18:22;7.00;99.90
12568;DHT22;6349;50.904;6.136;2023-02-24T01:20:23;7.00;99.90
12568;DHT22;6349;50.904;6.136;2023-02-24T01:22:26;7.00;99.90
12568;DHT22;6349;50.904;6.136;2023-02-24T01:24:32;7.00;99.90
12568;DHT22;6349;50.904;6.136;2023-02-24T01:26:34;7.00;99.90
12568;DHT22;6349;50.904;6.136;2023-02-24T01:28:36;6.90;99.90
12568;DHT22;6349;50.904;6.136;2023-02-24T01:30:37;7.00;99.90
12568;DHT22;6349;50.904;6.136;2023-02-24T01:32:39;7.00;99.90
12568;DHT22;6349;50.904;6.136;2023-02-24T01:34:41;7.10;99.90
12568;DHT22;6349;50.904;6.136;2023-02-24T01:36:43;7.10;99.90
12568;DHT22;6349;50.904;6.136;2023-02-24T01:38:48;7.10;99.90
12568;DHT22;6349;50.904;6.136;2023-02-24T01:41:04;7.10;99.90
12568;DHT22;6349;50.904;6.136;2023-02-24T01:43:09;7.10;99.90
12568;DHT22;6349;50.904;6.136;2023-02-24T01:45:13;7.20;99.90
12568;DHT22;6349;50.904;6.136;2023-02-24T01:47:17;7.20;99.90
12568;DHT22;6349;50.904;6.136;2023-02-24T01:51:59;7.20;99.90
12568;DHT22;6349;50.904;6.136;2023-02-24T01:54:02;7.20;99.90
12568;DHT22;6349;50.904;6.136;2023-02-24T01:56:04;7.20;99.90
12568;DHT22;6349;50.904;6.136;2023-02-24T01:58:12;7.20;99.90
12568;DHT22;6349;50.904;6.136;2023-02-24T02:00:16;7.20;99.90
12568;DHT22;6349;50.904;6.136;2023-02-24T02:02:30;7.20;99.90
12568;DHT22;6349;50.904;6.136;2023-02-24T02:04:39;7.20;99.90
12568;DHT22;6349;50.904;6.136;2023-02-24T02:06:44;7.20;99.90
12568;DHT22;6349;50.904;6.136;2023-02-24T02:08:47;7.20;99.90
12568;DHT22;6349;50.904;6.136;2023-02-24T02:10:48;7.20;99.90
12568;DHT22;6349;50.904;6.136;2023-02-24T02:12:54;7.20;99.90
12568;DHT22;6349;50.904;6.136;2023-02-24T02:14:57;7.20;99.90
12568;DHT22;6349;50.904;6.136;2023-02-24T02:17:40;7.20;99.90
12568;DHT22;6349;50.904;6.136;2023-02-24T02:25:12;7.00;99.90
12568;DHT22;6349;50.904;6.136;2023-02-24T02:32:39;6.90;99.90
12568;DHT22;6349;50.904;6.136;2023-02-24T02:34:54;6.90;99.90
12568;DHT22;6349;50.904;6.136;2023-02-24T02:37:07;6.80;99.90
12568;DHT22;6349;50.904;6.136;2023-02-24T02:39:25;6.70;99.90
12568;DHT22;6349;50.904;6.136;2023-02-24T02:44:08;6.80;99.90
12568;DHT22;6349;50.904;6.136;2023-02-24T02:46:16;6.70;99.90
12568;DHT22;6349;50.904;6.136;2023-02-24T02:48:39;6.70;99.90
12568;DHT22;6349;50.904;6.136;2023-02-24T02:50:48;6.70;99.90
12568;DHT22;6349;50.904;6.136;2023-02-24T02:52:57;6.80;99.90
12568;DHT22;6349;50.904;6.136;2023-02-24T02:55:04;6.80;99.90
12568;DHT22;6349;50.904;6.136;2023-02-24T02:57:13;6.80;99.90
12568;DHT22;6349;50.904;6.136;2023-02-24T02:59:18;6.80;99.90
12568;DHT22;6349;50.904;6.136;2023-02-24T03:01:28;6.80;99.90
12568;DHT22;6349;50.904;6.136;2023-02-24T03:03:35;6.70;99.90
12568;DHT22;6349;50.904;6.136;2023-02-24T03:05:45;6.70;99.90
12568;DHT22;6349;50.904;6.136;2023-02-24T03:07:51;6.70;99.90
12568;DHT22;6349;50.904;6.136;2023-02-24T03:09:59;6.70;99.90
12568;DHT22;6349;50.904;6.136;2023-02-24T03:12:05;6.70;99.90
12568;DHT22;6349;50.904;6.136;2023-02-24T03:14:11;6.60;99.90
12568;DHT22;6349;50.904;6.136;2023-02-24T03:16:16;6.60;99.90
12568;DHT22;6349;50.904;6.136;2023-02-24T03:18:23;6.60;99.90
12568;DHT22;6349;50.904;6.136;2023-02-24T03:20:37;6.60;99.90
12568;DHT22;6349;50.904;6.136;2023-02-24T03:22:49;6.70;99.90
12568;DHT22;6349;50.904;6.136;2023-02-24T03:24:52;6.70;99.90
12568;DHT22;6349;50.904;6.136;2023-02-24T03:27:04;6.60;99.90
12568;DHT22;6349;50.904;6.136;2023-02-24T03:29:20;6.70;99.90
12568;DHT22;6349;50.904;6.136;2023-02-24T03:31:30;6.70;99.90
12568;DHT22;6349;50.904;6.136;2023-02-24T03:33:39;6.70;99.90
12568;DHT22;6349;50.904;6.136;2023-02-24T03:35:41;6.70;99.90
12568;DHT22;6349;50.904;6.136;2023-02-24T03:37:43;6.70;99.90
12568;DHT22;6349;50.904;6.136;2023-02-24T03:39:45;6.70;99.90
12568;DHT22;6349;50.904;6.136;2023-02-24T03:42:12;6.80;99.90
12568;DHT22;6349;50.904;6.136;2023-02-24T03:44:15;6.80;99.90
12568;DHT22;6349;50.904;6.136;2023-02-24T03:46:16;6.80;99.90
12568;DHT22;6349;50.904;6.136;2023-02-24T03:48:18;6.90;99.90
12568;DHT22;6349;50.904;6.136;2023-02-24T03:50:20;6.90;99.90
12568;DHT22;6349;50.904;6.136;2023-02-24T03:55:10;6.90;99.90
12568;DHT22;6349;50.904;6.136;2023-02-24T03:59:44;6.80;99.90
12568;DHT22;6349;50.904;6.136;2023-02-24T04:01:57;6.80;99.90
12568;DHT22;6349;50.904;6.136;2023-02-24T04:04:06;6.80;99.90
12568;DHT22;6349;50.904;6.136;2023-02-24T04:06:31;6.70;99.90
12568;DHT22;6349;50.904;6.136;2023-02-24T04:08:54;6.70;99.90
12568;DHT22;6349;50.904;6.136;2023-02-24T04:11:11;6.70;99.90
12568;DHT22;6349;50.904;6.136;2023-02-24T04:13:34;6.60;99.90
12568;DHT22;6349;50.904;6.136;2023-02-24T04:15:41;6.60;99.90
12568;DHT22;6349;50.904;6.136;2023-02-24T04:17:48;6.60;99.90
12568;DHT22;6349;50.904;6.136;2023-02-24T04:19:53;6.60;99.90
12568;DHT22;6349;50.904;6.136;2023-02-24T04:21:55;6.60;99.90
12568;DHT22;6349;50.904;6.136;2023-02-24T04:24:01;6.60;99.90
12568;DHT22;6349;50.904;6.136;2023-02-24T04:26:10;6.60;99.90
12568;DHT22;6349;50.904;6.136;2023-02-24T04:28:14;6.60;99.90
12568;DHT22;6349;50.904;6.136;2023-02-24T04:30:18;6.60;99.90
12568;DHT22;6349;50.904;6.136;2023-02-24T04:32:26;6.60;99.90
12568;DHT22;6349;50.904;6.136;2023-02-24T04:34:27;6.60;99.90
12568;DHT22;6349;50.904;6.136;2023-02-24T04:36:32;6.50;99.90
12568;DHT22;6349;50.904;6.136;2023-02-24T04:38:34;6.50;99.90
12568;DHT22;6349;50.904;6.136;2023-02-24T04:40:35;6.50;99.90
12568;DHT22;6349;50.904;6.136;2023-02-24T04:42:37;6.60;99.90
12568;DHT22;6349;50.904;6.136;2023-02-24T04:44:46;6.60;99.90
12568;DHT22;6349;50.904;6.136;2023-02-24T04:46:49;6.60;99.90
12568;DHT22;6349;50.904;6.136;2023-02-24T04:48:50;6.60;99.90
12568;DHT22;6349;50.904;6.136;2023-02-24T04:50:51;6.60;99.90
12568;DHT22;6349;50.904;6.136;2023-02-24T04:52:57;6.60;99.90
12568;DHT22;6349;50.904;6.136;2023-02-24T04:55:00;6.60;99.90
12568;DHT22;6349;50.904;6.136;2023-02-24T04:57:02;6.60;99.90
12568;DHT22;6349;50.904;6.136;2023-02-24T04:59:06;6.60;99.90
12568;DHT22;6349;50.904;6.136;2023-02-24T05:01:10;6.50;99.90
12568;DHT22;6349;50.904;6.136;2023-02-24T05:03:12;6.50;99.90
12568;DHT22;6349;50.904;6.136;2023-02-24T05:05:15;6.50;99.90
12568;DHT22;6349;50.904;6.136;2023-02-24T05:07:16;6.50;99.90
12568;DHT22;6349;50.904;6.136;2023-02-24T05:09:17;6.50;99.90
12568;DHT22;6349;50.904;6.136;2023-02-24T05:11:19;6.50;99.90
12568;DHT22;6349;50.904;6.136;2023-02-24T05:13:23;6.40;99.90
12568;DHT22;6349;50.904;6.136;2023-02-24T05:15:28;6.40;99.90
12568;DHT22;6349;50.904;6.136;2023-02-24T05:17:31;6.50;99.90
12568;DHT22;6349;50.904;6.136;2023-02-24T05:19:33;6.40;99.90
12568;DHT22;6349;50.904;6.136;2023-02-24T05:21:55;6.40;99.90
12568;DHT22;6349;50.904;6.136;2023-02-24T05:23:59;6.40;99.90
12568;DHT22;6349;50.904;6.136;2023-02-24T05:26:11;6.40;99.90
12568;DHT22;6349;50.904;6.136;2023-02-24T05:28:16;6.40;99.90
12568;DHT22;6349;50.904;6.136;2023-02-24T05:30:18;6.40;99.90
12568;DHT22;6349;50.904;6.136;2023-02-24T05:32:19;6.40;99.90
12568;DHT22;6349;50.904;6.136;2023-02-24T05:34:21;6.30;99.90
12568;DHT22;6349;50.904;6.136;2023-02-24T05:36:29;6.30;99.90
12568;DHT22;6349;50.904;6.136;2023-02-24T05:38:31;6.30;99.90
12568;DHT22;6349;50.904;6.136;2023-02-24T05:40:34;6.30;99.90
12568;DHT22;6349;50.904;6.136;2023-02-24T05:42:36;6.30;99.90
12568;DHT22;6349;50.904;6.136;2023-02-24T05:44:37;6.30;99.90
12568;DHT22;6349;50.904;6.136;2023-02-24T05:46:42;6.30;99.90
12568;DHT22;6349;50.904;6.136;2023-02-24T05:48:49;6.30;99.90
12568;DHT22;6349;50.904;6.136;2023-02-24T05:50:51;6.30;99.90
12568;DHT22;6349;50.904;6.136;2023-02-24T05:52:54;6.30;99.90
12568;DHT22;6349;50.904;6.136;2023-02-24T05:54:55;6.40;99.90
12568;DHT22;6349;50.904;6.136;2023-02-24T05:56:59;6.30;99.90
12568;DHT22;6349;50.904;6.136;2023-02-24T05:59:02;6.30;99.90
12568;DHT22;6349;50.904;6.136;2023-02-24T06:01:10;6.30;99.90
12568;DHT22;6349;50.904;6.136;2023-02-24T06:03:15;6.30;99.90
12568;DHT22;6349;50.904;6.136;2023-02-24T06:05:17;6.30;99.90
12568;DHT22;6349;50.904;6.136;2023-02-24T06:07:27;6.30;99.90
12568;DHT22;6349;50.904;6.136;2023-02-24T06:09:28;6.20;99.90
12568;DHT22;6349;50.904;6.136;2023-02-24T06:11:30;6.20;99.90
12568;DHT22;6349;50.904;6.136;2023-02-24T06:13:32;6.10;99.90
12568;DHT22;6349;50.904;6.136;2023-02-24T06:15:33;6.10;99.90
12568;DHT22;6349;50.904;6.136;2023-02-24T06:17:34;6.00;99.90
12568;DHT22;6349;50.904;6.136;2023-02-24T06:19:34;6.10;99.90
12568;DHT22;6349;50.904;6.136;2023-02-24T06:21:38;6.10;99.90
12568;DHT22;6349;50.904;6.136;2023-02-24T06:23:41;6.00;99.90
12568;DHT22;6349;50.904;6.136;2023-02-24T06:25:43;6.00;99.90
12568;DHT22;6349;50.904;6.136;2023-02-24T06:27:44;6.00;99.90
12568;DHT22;6349;50.904;6.136;2023-02-24T06:29:48;6.00;99.90
12568;DHT22;6349;50.904;6.136;2023-02-24T06:31:49;6.00;99.90
12568;DHT22;6349;50.904;6.136;2023-02-24T06:33:53;6.00;99.90
12568;DHT22;6349;50.904;6.136;2023-02-24T06:35:59;6.00;99.90
12568;DHT22;6349;50.904;6.136;2023-02-24T06:37:59;6.00;99.90
12568;DHT22;6349;50.904;6.136;2023-02-24T06:40:00;6.10;99.90
12568;DHT22;6349;50.904;6.136;2023-02-24T06:42:04;6.00;99.90
12568;DHT22;6349;50.904;6.136;2023-02-24T06:44:08;6.00;99.90
12568;DHT22;6349;50.904;6.136;2023-02-24T06:46:13;6.10;99.90
12568;DHT22;6349;50.904;6.136;2023-02-24T06:48:14;6.10;99.90
12568;DHT22;6349;50.904;6.136;2023-02-24T06:50:18;6.00;99.90
12568;DHT22;6349;50.904;6.136;2023-02-24T06:52:20;6.10;99.90
12568;DHT22;6349;50.904;6.136;2023-02-24T06:54:22;6.10;99.90
12568;DHT22;6349;50.904;6.136;2023-02-24T06:56:25;6.10;99.90
12568;DHT22;6349;50.904;6.136;2023-02-24T06:58:26;6.10;99.90
12568;DHT22;6349;50.904;6.136;2023-02-24T07:00:30;6.00;99.90
12568;DHT22;6349;50.904;6.136;2023-02-24T07:02:38;6.00;99.90
12568;DHT22;6349;50.904;6.136;2023-02-24T07:04:39;6.00;99.90
12568;DHT22;6349;50.904;6.136;2023-02-24T07:06:46;6.00;99.90
12568;DHT22;6349;50.904;6.136;2023-02-24T07:08:51;6.00;99.90
12568;DHT22;6349;50.904;6.136;2023-02-24T07:10:55;6.00;99.90
12568;DHT22;6349;50.904;6.136;2023-02-24T07:12:58;6.00;99.90
12568;DHT22;6349;50.904;6.136;2023-02-24T07:15:00;6.00;99.90
12568;DHT22;6349;50.904;6.136;2023-02-24T07:17:01;6.00;99.90
12568;DHT22;6349;50.904;6.136;2023-02-24T07:19:05;6.00;99.90
12568;DHT22;6349;50.904;6.136;2023-02-24T07:21:15;6.00;99.90
12568;DHT22;6349;50.904;6.136;2023-02-24T07:23:16;6.00;99.90
12568;DHT22;6349;50.904;6.136;2023-02-24T07:25:17;6.00;99.90
12568;DHT22;6349;50.904;6.136;2023-02-24T07:27:33;5.90;99.90
12568;DHT22;6349;50.904;6.136;2023-02-24T07:29:37;6.00;99.90
12568;DHT22;6349;50.904;6.136;2023-02-24T07:31:39;6.00;99.90
12568;DHT22;6349;50.904;6.136;2023-02-24T07:33:45;6.00;99.90
12568;DHT22;6349;50.904;6.136;2023-02-24T07:35:49;6.00;99.90
12568;DHT22;6349;50.904;6.136;2023-02-24T07:37:51;5.90;99.90
12568;DHT22;6349;50.904;6.136;2023-02-24T07:39:52;5.90;99.90
12568;DHT22;6349;50.904;6.136;2023-02-24T07:41:54;5.90;99.90
12568;DHT22;6349;50.904;6.136;2023-02-24T07:43:56;5.90;99.90
12568;DHT22;6349;50.904;6.136;2023-02-24T07:46:19;5.80;99.90
12568;DHT22;6349;50.904;6.136;2023-02-24T07:48:20;5.80;99.90
12568;DHT22;6349;50.904;6.136;2023-02-24T07:50:20;5.80;99.90
12568;DHT22;6349;50.904;6.136;2023-02-24T07:52:21;5.80;99.90
12568;DHT22;6349;50.904;6.136;2023-02-24T07:54:24;5.80;99.90
12568;DHT22;6349;50.904;6.136;2023-02-24T07:56:30;5.80;99.90
12568;DHT22;6349;50.904;6.136;2023-02-24T07:58:32;5.80;99.90
12568;DHT22;6349;50.904;6.136;2023-02-24T08:00:33;5.80;99.90
12568;DHT22;6349;50.904;6.136;2023-02-24T08:02:55;5.90;99.90
12568;DHT22;6349;50.904;6.136;2023-02-24T08:04:57;5.90;99.90
12568;DHT22;6349;50.904;6.136;2023-02-24T08:07:05;6.00;99.90
12568;DHT22;6349;50.904;6.136;2023-02-24T08:09:16;6.00;99.90
12568;DHT22;6349;50.904;6.136;2023-02-24T08:11:18;5.90;99.90
12568;DHT22;6349;50.904;6.136;2023-02-24T08:13:25;5.90;99.90
12568;DHT22;6349;50.904;6.136;2023-02-24T08:15:31;5.90;99.90
12568;DHT22;6349;50.904;6.136;2023-02-24T08:17:34;5.80;99.90
12568;DHT22;6349;50.904;6.136;2023-02-24T08:19:35;5.90;99.90
12568;DHT22;6349;50.904;6.136;2023-02-24T08:21:40;5.80;99.90
12568;DHT22;6349;50.904;6.136;2023-02-24T08:23:42;5.70;99.90
12568;DHT22;6349;50.904;6.136;2023-02-24T08:25:44;5.80;99.90
12568;DHT22;6349;50.904;6.136;2023-02-24T08:27:49;5.70;99.90
12568;DHT22;6349;50.904;6.136;2023-02-24T08:29:58;5.70;99.90
12568;DHT22;6349;50.904;6.136;2023-02-24T08:31:59;5.70;99.90
12568;DHT22;6349;50.904;6.136;2023-02-24T08:34:00;5.70;99.90
12568;DHT22;6349;50.904;6.136;2023-02-24T08:36:01;5.70;99.90
12568;DHT22;6349;50.904;6.136;2023-02-24T08:38:07;5.70;99.90
12568;DHT22;6349;50.904;6.136;2023-02-24T08:40:10;5.70;99.90
12568;DHT22;6349;50.904;6.136;2023-02-24T08:42:32;5.80;99.90
12568;DHT22;6349;50.904;6.136;2023-02-24T08:44:34;5.70;99.90
12568;DHT22;6349;50.904;6.136;2023-02-24T08:46:39;5.70;99.90
12568;DHT22;6349;50.904;6.136;2023-02-24T08:48:42;5.70;99.90
12568;DHT22;6349;50.904;6.136;2023-02-24T08:50:46;5.70;99.90
12568;DHT22;6349;50.904;6.136;2023-02-24T08:52:47;5.70;99.90
12568;DHT22;6349;50.904;6.136;2023-02-24T08:54:48;5.70;99.90
12568;DHT22;6349;50.904;6.136;2023-02-24T08:56:50;5.70;99.90
12568;DHT22;6349;50.904;6.136;2023-02-24T08:59:00;5.70;99.90
12568;DHT22;6349;50.904;6.136;2023-02-24T09:01:11;5.70;99.90
12568;DHT22;6349;50.904;6.136;2023-02-24T09:03:23;5.70;99.90
12568;DHT22;6349;50.904;6.136;2023-02-24T09:05:29;5.70;99.90
12568;DHT22;6349;50.904;6.136;2023-02-24T09:07:38;5.70;99.90
12568;DHT22;6349;50.904;6.136;2023-02-24T09:10:18;5.70;99.90
12568;DHT22;6349;50.904;6.136;2023-02-24T09:13:35;5.60;99.90
12568;DHT22;6349;50.904;6.136;2023-02-24T09:19:51;5.70;99.90
12568;DHT22;6349;50.904;6.136;2023-02-24T09:26:11;5.70;99.90
12568;DHT22;6349;50.904;6.136;2023-02-24T09:30:27;5.80;99.90
12568;DHT22;6349;50.904;6.136;2023-02-24T09:32:36;5.80;99.90
12568;DHT22;6349;50.904;6.136;2023-02-24T09:34:40;5.80;99.90
12568;DHT22;6349;50.904;6.136;2023-02-24T09:36:44;5.70;99.90
12568;DHT22;6349;50.904;6.136;2023-02-24T09:38:49;5.80;99.90
12568;DHT22;6349;50.904;6.136;2023-02-24T09:41:21;5.80;99.90
12568;DHT22;6349;50.904;6.136;2023-02-24T09:43:35;5.80;99.90
12568;DHT22;6349;50.904;6.136;2023-02-24T09:46:03;5.70;99.90
12568;DHT22;6349;50.904;6.136;2023-02-24T09:48:27;5.70;99.90
12568;DHT22;6349;50.904;6.136;2023-02-24T09:50:31;5.70;99.90
12568;DHT22;6349;50.904;6.136;2023-02-24T09:52:56;5.80;99.90
12568;DHT22;6349;50.904;6.136;2023-02-24T09:58:06;5.90;99.90
12568;DHT22;6349;50.904;6.136;2023-02-24T10:00:39;5.90;99.90
12568;DHT22;6349;50.904;6.136;2023-02-24T10:02:56;5.90;99.90
12568;DHT22;6349;50.904;6.136;2023-02-24T10:05:17;5.90;99.90
12568;DHT22;6349;50.904;6.136;2023-02-24T10:07:34;6.00;99.90
12568;DHT22;6349;50.904;6.136;2023-02-24T10:09:45;6.00;99.90
12568;DHT22;6349;50.904;6.136;2023-02-24T10:11:56;6.10;99.90
12568;DHT22;6349;50.904;6.136;2023-02-24T10:18:50;6.20;99.90
12568;DHT22;6349;50.904;6.136;2023-02-24T10:21:33;6.10;99.90
12568;DHT22;6349;50.904;6.136;2023-02-24T10:24:14;6.10;99.90
12568;DHT22;6349;50.904;6.136;2023-02-24T10:26:25;6.10;99.90
12568;DHT22;6349;50.904;6.136;2023-02-24T10:28:54;6.10;99.90
12568;DHT22;6349;50.904;6.136;2023-02-24T10:31:08;6.20;99.90
12568;DHT22;6349;50.904;6.136;2023-02-24T10:33:19;6.20;99.90
12568;DHT22;6349;50.904;6.136;2023-02-24T10:35:28;6.10;99.90
12568;DHT22;6349;50.904;6.136;2023-02-24T10:37:33;6.10;99.90
12568;DHT22;6349;50.904;6.136;2023-02-24T10:39:38;6.00;99.90
12568;DHT22;6349;50.904;6.136;2023-02-24T10:41:46;6.00;99.90
12568;DHT22;6349;50.904;6.136;2023-02-24T10:43:55;6.00;99.90
12568;DHT22;6349;50.904;6.136;2023-02-24T10:46:00;6.00;99.90
12568;DHT22;6349;50.904;6.136;2023-02-24T10:48:07;5.90;99.90
12568;DHT22;6349;50.904;6.136;2023-02-24T10:50:27;5.90;99.90
12568;DHT22;6349;50.904;6.136;2023-02-24T10:52:35;5.90;99.90
12568;DHT22;6349;50.904;6.136;2023-02-24T10:54:38;5.90;99.90
12568;DHT22;6349;50.904;6.136;2023-02-24T10:56:55;5.90;99.90
12568;DHT22;6349;50.904;6.136;2023-02-24T10:59:11;5.90;99.90
12568;DHT22;6349;50.904;6.136;2023-02-24T11:01:32;5.80;99.90
12568;DHT22;6349;50.904;6.136;2023-02-24T11:03:47;5.80;99.90
12568;DHT22;6349;50.904;6.136;2023-02-24T11:06:02;5.80;99.90
12568;DHT22;6349;50.904;6.136;2023-02-24T11:08:34;5.70;99.90
12568;DHT22;6349;50.904;6.136;2023-02-24T11:11:22;5.70;99.90
12568;DHT22;6349;50.904;6.136;2023-02-24T11:13:29;5.60;99.90
12568;DHT22;6349;50.904;6.136;2023-02-24T11:16:09;5.60;99.90
12568;DHT22;6349;50.904;6.136;2023-02-24T11:18:58;5.60;99.90
12568;DHT22;6349;50.904;6.136;2023-02-24T11:21:02;5.60;99.90
12568;DHT22;6349;50.904;6.136;2023-02-24T11:23:07;5.60;99.90
12568;DHT22;6349;50.904;6.136;2023-02-24T11:25:26;5.60;99.90
12568;DHT22;6349;50.904;6.136;2023-02-24T11:27:28;5.60;99.90
12568;DHT22;6349;50.904;6.136;2023-02-24T11:29:47;5.50;99.90
12568;DHT22;6349;50.904;6.136;2023-02-24T11:32:22;5.60;99.90
12568;DHT22;6349;50.904;6.136;2023-02-24T11:39:57;5.60;99.90
12568;DHT22;6349;50.904;6.136;2023-02-24T11:42:08;5.60;99.90
12568;DHT22;6349;50.904;6.136;2023-02-24T11:44:22;5.60;99.90
12568;DHT22;6349;50.904;6.136;2023-02-24T11:46:36;5.50;99.90
12568;DHT22;6349;50.904;6.136;2023-02-24T11:48:46;5.50;99.90
12568;DHT22;6349;50.904;6.136;2023-02-24T11:50:53;5.50;99.90
12568;DHT22;6349;50.904;6.136;2023-02-24T11:52:58;5.50;99.90
12568;DHT22;6349;50.904;6.136;2023-02-24T11:55:04;5.50;99.90
12568;DHT22;6349;50.904;6.136;2023-02-24T11:57:18;5.50;99.90
12568;DHT22;6349;50.904;6.136;2023-02-24T11:59:39;5.40;99.90
12568;DHT22;6349;50.904;6.136;2023-02-24T12:04:33;5.40;99.90
12568;DHT22;6349;50.904;6.136;2023-02-24T12:07:00;5.40;99.90
12568;DHT22;6349;50.904;6.136;2023-02-24T12:09:12;5.40;99.90
12568;DHT22;6349;50.904;6.136;2023-02-24T12:11:33;5.40;99.90
12568;DHT22;6349;50.904;6.136;2023-02-24T12:13:49;5.40;99.90
12568;DHT22;6349;50.904;6.136;2023-02-24T12:16:18;5.50;99.90
12568;DHT22;6349;50.904;6.136;2023-02-24T12:18:38;5.50;99.90
12568;DHT22;6349;50.904;6.136;2023-02-24T12:20:49;5.50;99.90
12568;DHT22;6349;50.904;6.136;2023-02-24T12:22:55;5.50;99.90
12568;DHT22;6349;50.904;6.136;2023-02-24T12:24:58;5.60;99.90
12568;DHT22;6349;50.904;6.136;2023-02-24T12:27:15;5.60;99.90
12568;DHT22;6349;50.904;6.136;2023-02-24T12:29:49;5.60;99.90
12568;DHT22;6349;50.904;6.136;2023-02-24T12:32:14;5.60;99.90
12568;DHT22;6349;50.904;6.136;2023-02-24T12:34:30;5.60;99.90
12568;DHT22;6349;50.904;6.136;2023-02-24T12:42:00;5.50;99.90
12568;DHT22;6349;50.904;6.136;2023-02-24T12:44:20;5.50;99.90
12568;DHT22;6349;50.904;6.136;2023-02-24T12:46:34;5.50;99.90
12568;DHT22;6349;50.904;6.136;2023-02-24T12:49:00;5.50;99.90
12568;DHT22;6349;50.904;6.136;2023-02-24T12:53:43;5.60;99.90
12568;DHT22;6349;50.904;6.136;2023-02-24T12:56:14;5.60;99.90
12568;DHT22;6349;50.904;6.136;2023-02-24T12:58:35;5.60;99.90
12568;DHT22;6349;50.904;6.136;2023-02-24T13:03:48;5.50;99.90
12568;DHT22;6349;50.904;6.136;2023-02-24T13:08:34;5.50;99.90
12568;DHT22;6349;50.904;6.136;2023-02-24T13:13:22;5.60;99.90
12568;DHT22;6349;50.904;6.136;2023-02-24T13:15:27;5.60;99.90
12568;DHT22;6349;50.904;6.136;2023-02-24T13:17:32;5.60;99.90
12568;DHT22;6349;50.904;6.136;2023-02-24T13:19:33;5.60;99.90
12568;DHT22;6349;50.904;6.136;2023-02-24T13:21:35;5.60;99.90
12568;DHT22;6349;50.904;6.136;2023-02-24T13:23:40;5.60;99.90
12568;DHT22;6349;50.904;6.136;2023-02-24T13:25:49;5.70;99.90
12568;DHT22;6349;50.904;6.136;2023-02-24T13:27:59;5.70;99.90
12568;DHT22;6349;50.904;6.136;2023-02-24T13:30:22;5.70;99.90
12568;DHT22;6349;50.904;6.136;2023-02-24T13:32:30;5.70;99.90
12568;DHT22;6349;50.904;6.136;2023-02-24T13:34:42;5.70;99.90
12568;DHT22;6349;50.904;6.136;2023-02-24T13:36:47;5.70;99.90
12568;DHT22;6349;50.904;6.136;2023-02-24T13:39:02;5.80;99.90
12568;DHT22;6349;50.904;6.136;2023-02-24T13:41:07;5.80;99.90
12568;DHT22;6349;50.904;6.136;2023-02-24T13:43:26;5.80;99.90
12568;DHT22;6349;50.904;6.136;2023-02-24T13:45:34;5.80;99.90
12568;DHT22;6349;50.904;6.136;2023-02-24T13:50:23;5.70;99.90
12568;DHT22;6349;50.904;6.136;2023-02-24T13:54:58;5.70;99.90
12568;DHT22;6349;50.904;6.136;2023-02-24T13:57:30;5.70;99.90
12568;DHT22;6349;50.904;6.136;2023-02-24T14:02:18;5.70;99.90
12568;DHT22;6349;50.904;6.136;2023-02-24T14:04:24;5.70;99.90
12568;DHT22;6349;50.904;6.136;2023-02-24T14:06:26;5.70;99.90
12568;DHT22;6349;50.904;6.136;2023-02-24T14:08:43;5.70;99.90
12568;DHT22;6349;50.904;6.136;2023-02-24T14:10:50;5.70;99.90
12568;DHT22;6349;50.904;6.136;2023-02-24T14:15:12;5.70;99.90
12568;DHT22;6349;50.904;6.136;2023-02-24T14:19:41;5.70;99.90
12568;DHT22;6349;50.904;6.136;2023-02-24T14:21:50;5.70;99.90
12568;DHT22;6349;50.904;6.136;2023-02-24T14:23:58;5.70;99.90
12568;DHT22;6349;50.904;6.136;2023-02-24T14:26:05;5.70;99.90
12568;DHT22;6349;50.904;6.136;2023-02-24T14:28:19;5.70;99.90
12568;DHT22;6349;50.904;6.136;2023-02-24T14:30:23;5.70;99.90
12568;DHT22;6349;50.904;6.136;2023-02-24T14:32:26;5.70;99.90
12568;DHT22;6349;50.904;6.136;2023-02-24T14:34:30;5.70;99.90
12568;DHT22;6349;50.904;6.136;2023-02-24T14:36:36;5.60;99.90
12568;DHT22;6349;50.904;6.136;2023-02-24T14:38:39;5.70;99.90
12568;DHT22;6349;50.904;6.136;2023-02-24T14:40:46;5.80;99.90
12568;DHT22;6349;50.904;6.136;2023-02-24T14:42:48;5.70;99.90
12568;DHT22;6349;50.904;6.136;2023-02-24T14:44:53;5.70;99.90
12568;DHT22;6349;50.904;6.136;2023-02-24T14:46:58;5.60;99.90
12568;DHT22;6349;50.904;6.136;2023-02-24T14:48:59;5.60;99.90
12568;DHT22;6349;50.904;6.136;2023-02-24T14:51:08;5.60;99.90
12568;DHT22;6349;50.904;6.136;2023-02-24T14:53:14;5.60;99.90
12568;DHT22;6349;50.904;6.136;2023-02-24T14:55:21;5.60;99.90
12568;DHT22;6349;50.904;6.136;2023-02-24T14:57:38;5.60;99.90
12568;DHT22;6349;50.904;6.136;2023-02-24T14:59:45;5.60;99.90
12568;DHT22;6349;50.904;6.136;2023-02-24T15:01:55;5.50;99.90
12568;DHT22;6349;50.904;6.136;2023-02-24T15:06:40;5.60;99.90
12568;DHT22;6349;50.904;6.136;2023-02-24T15:08:46;5.60;99.90
12568;DHT22;6349;50.904;6.136;2023-02-24T15:10:49;5.70;99.90
12568;DHT22;6349;50.904;6.136;2023-02-24T15:12:59;5.60;99.90
12568;DHT22;6349;50.904;6.136;2023-02-24T15:15:28;5.60;99.90
12568;DHT22;6349;50.904;6.136;2023-02-24T15:17:30;5.60;99.90